createdAt,value
2019-02-27T00:01:16.747Z,7.70
2019-02-27T00:03:44.168Z,7.40
2019-02-27T00:06:12.940Z,7.50
2019-02-27T00:08:42.188Z,7.40
2019-02-27T00:11:12.388Z,7.20
2019-02-27T00:13:39.950Z,7.10
2019-02-27T00:16:10.856Z,7.40
2019-02-27T00:18:37.450Z,7.20
2019-02-27T00:21:10.159Z,6.80
2019-02-27T00:23:35.039Z,6.90
2019-02-27T00:26:02.555Z,7.00
2019-02-27T00:28:30.120Z,7.40
2019-02-27T00:30:57.727Z,7.10
2019-02-27T00:33:28.469Z,7.40
2019-02-27T00:35:55.823Z,7.00
2019-02-27T00:38:25.279Z,7.10
2019-02-27T00:40:53.080Z,6.90
2019-02-27T00:43:20.655Z,7.10
2019-02-27T00:45:48.203Z,6.90
2019-02-27T00:48:15.687Z,6.90
2019-02-27T00:50:43.671Z,7.00
2019-02-27T00:53:11.471Z,6.90
2019-02-27T00:55:39.529Z,6.70
2019-02-27T00:58:07.152Z,6.40
2019-02-27T01:00:38.998Z,6.80
2019-02-27T01:03:04.665Z,6.70
2019-02-27T01:05:32.601Z,6.80
2019-02-27T01:08:00.770Z,6.80
2019-02-27T01:10:28.847Z,6.70
2019-02-27T01:12:58.199Z,6.80
2019-02-27T01:15:27.241Z,6.60
2019-02-27T01:17:57.552Z,6.60
2019-02-27T01:20:25.135Z,7.00
2019-02-27T01:22:52.674Z,6.80
2019-02-27T01:25:22.993Z,6.60
2019-02-27T01:27:51.544Z,6.60
2019-02-27T01:30:19.427Z,6.70
2019-02-27T01:32:47.177Z,6.70
2019-02-27T01:35:17.511Z,6.80
2019-02-27T01:37:44.698Z,7.10
2019-02-27T01:40:17.228Z,6.70
2019-02-27T01:42:42.614Z,6.80
2019-02-27T01:45:12.465Z,6.90
2019-02-27T01:47:40.239Z,6.80
2019-02-27T01:50:30.922Z,6.90
2019-02-27T01:52:59.103Z,6.90
2019-02-27T01:55:26.979Z,7.00
2019-02-27T01:57:54.816Z,6.70
2019-02-27T02:00:23.871Z,6.60
2019-02-27T02:02:51.563Z,6.60
2019-02-27T02:05:19.048Z,6.90
2019-02-27T02:07:47.428Z,7.00
2019-02-27T02:10:15.138Z,6.80
2019-02-27T02:12:43.249Z,6.60
2019-02-27T02:15:15.485Z,6.60
2019-02-27T02:18:36.242Z,6.60
2019-02-27T02:21:35.826Z,7.00
2019-02-27T02:25:06.207Z,6.60
2019-02-27T02:28:12.119Z,7.00
2019-02-27T02:31:11.006Z,6.60
2019-02-27T02:34:06.931Z,6.50
2019-02-27T02:37:03.257Z,6.50
2019-02-27T02:40:16.189Z,6.30
2019-02-27T02:43:16.026Z,6.50
2019-02-27T02:45:50.115Z,6.30
2019-02-27T02:48:27.683Z,6.50
2019-02-27T02:51:34.831Z,6.50
2019-02-27T02:54:37.567Z,6.30
2019-02-27T02:57:43.184Z,6.30
2019-02-27T03:01:13.926Z,6.50
2019-02-27T03:04:12.970Z,6.20
2019-02-27T03:07:07.176Z,6.40
2019-02-27T03:10:07.440Z,6.30
2019-02-27T03:13:20.587Z,6.30
2019-02-27T03:16:29.958Z,6.20
2019-02-27T03:19:41.786Z,6.10
2019-02-27T03:22:44.014Z,5.90
2019-02-27T03:25:51.459Z,5.80
2019-02-27T03:29:16.839Z,5.80
2019-02-27T03:32:15.063Z,5.80
2019-02-27T03:35:29.150Z,5.90
2019-02-27T03:38:29.823Z,5.80
2019-02-27T03:41:14.302Z,5.80
2019-02-27T03:44:28.751Z,5.90
2019-02-27T03:47:15.437Z,5.90
2019-02-27T03:50:06.403Z,5.90
2019-02-27T03:53:01.252Z,5.80
2019-02-27T03:55:58.325Z,5.50
2019-02-27T03:58:48.876Z,5.20
2019-02-27T04:01:56.723Z,5.80
2019-02-27T04:05:14.929Z,5.80
2019-02-27T04:08:45.371Z,6.00
2019-02-27T04:11:13.563Z,5.80
2019-02-27T04:13:41.238Z,5.90
2019-02-27T04:16:09.628Z,5.70
2019-02-27T04:18:36.091Z,5.60
2019-02-27T04:21:03.868Z,6.00
2019-02-27T04:23:31.722Z,5.60
2019-02-27T04:26:05.429Z,5.70
2019-02-27T04:28:29.944Z,5.50
2019-02-27T04:30:58.229Z,5.50
2019-02-27T04:33:25.783Z,5.40
2019-02-27T04:35:53.290Z,5.50
2019-02-27T04:38:21.360Z,5.30
2019-02-27T04:40:49.803Z,5.50
2019-02-27T04:43:17.838Z,5.40
2019-02-27T04:45:46.890Z,5.10
2019-02-27T04:48:15.147Z,5.30
2019-02-27T04:50:44.139Z,5.40
2019-02-27T04:53:12.387Z,5.20
2019-02-27T04:55:42.710Z,5.20
2019-02-27T04:58:11.574Z,5.20
2019-02-27T05:00:39.192Z,5.20
2019-02-27T05:03:10.982Z,4.90
2019-02-27T05:05:41.435Z,5.00
2019-02-27T05:08:10.059Z,4.80
2019-02-27T05:10:38.211Z,5.00
2019-02-27T05:13:06.943Z,4.90
2019-02-27T05:15:38.917Z,4.80
2019-02-27T05:18:04.550Z,5.00
2019-02-27T05:20:32.342Z,4.30
2019-02-27T05:23:00.945Z,4.60
2019-02-27T05:25:28.695Z,4.70
2019-02-27T05:27:56.468Z,4.50
2019-02-27T05:30:24.547Z,4.50
2019-02-27T05:32:52.477Z,4.50
2019-02-27T05:35:23.329Z,4.20
2019-02-27T05:37:49.766Z,4.10
2019-02-27T05:40:17.854Z,4.00
2019-02-27T05:42:45.702Z,4.40
2019-02-27T05:45:13.551Z,3.30
2019-02-27T05:47:44.841Z,3.90
2019-02-27T05:50:11.298Z,3.80
2019-02-27T05:52:38.890Z,3.70
2019-02-27T05:55:07.082Z,3.90
2019-02-27T05:57:34.666Z,4.10
2019-02-27T06:00:03.385Z,4.20
2019-02-27T06:02:31.011Z,4.50
2019-02-27T06:04:59.207Z,4.10
2019-02-27T06:07:27.461Z,4.20
2019-02-27T06:09:55.052Z,4.40
2019-02-27T06:12:22.579Z,4.20
2019-02-27T06:14:54.826Z,4.20
2019-02-27T06:17:20.099Z,4.40
2019-02-27T06:19:47.954Z,4.20
2019-02-27T06:22:15.748Z,4.60
2019-02-27T06:24:45.601Z,4.50
2019-02-27T06:27:12.966Z,4.20
2019-02-27T06:29:40.470Z,4.20
2019-02-27T06:32:12.136Z,4.00
2019-02-27T06:34:37.666Z,4.10
2019-02-27T06:37:05.233Z,4.30
2019-02-27T06:39:34.428Z,4.50
2019-02-27T06:42:03.019Z,3.70
2019-02-27T06:44:30.634Z,4.40
2019-02-27T06:46:58.121Z,4.40
2019-02-27T06:49:26.406Z,4.70
2019-02-27T06:51:54.190Z,4.70
2019-02-27T06:54:22.010Z,5.00
2019-02-27T06:56:49.604Z,4.70
2019-02-27T06:59:18.211Z,5.10
2019-02-27T07:01:47.500Z,4.70
2019-02-27T07:04:15.595Z,5.20
2019-02-27T07:06:43.055Z,5.20
2019-02-27T07:09:11.618Z,5.00
2019-02-27T07:11:39.688Z,5.40
2019-02-27T07:14:07.240Z,5.10
2019-02-27T07:16:35.083Z,5.10
2019-02-27T07:19:02.981Z,5.50
2019-02-27T07:21:32.808Z,5.50
2019-02-27T07:24:00.270Z,5.50
2019-02-27T07:26:28.097Z,5.30
2019-02-27T07:28:55.992Z,5.70
2019-02-27T07:31:23.938Z,5.60
2019-02-27T07:33:51.561Z,5.80
2019-02-27T07:36:19.162Z,6.00
2019-02-27T07:38:46.975Z,6.30
2019-02-27T07:41:17.478Z,6.20
2019-02-27T07:43:46.527Z,6.30
2019-02-27T07:46:14.688Z,6.60
2019-02-27T07:48:42.599Z,6.80
2019-02-27T07:51:10.123Z,7.10
2019-02-27T07:53:38.071Z,8.60
2019-02-27T07:56:05.783Z,11.90
2019-02-27T07:58:34.567Z,14.90
2019-02-27T08:01:04.483Z,16.90
2019-02-27T08:03:31.750Z,18.80
2019-02-27T08:06:02.442Z,18.90
2019-02-27T08:08:32.060Z,19.60
2019-02-27T08:10:59.707Z,20.40
2019-02-27T08:13:29.686Z,21.30
2019-02-27T08:15:58.131Z,22.10
2019-02-27T08:18:30.229Z,22.50
2019-02-27T08:20:56.072Z,22.60
2019-02-27T08:23:23.905Z,22.50
2019-02-27T08:25:52.318Z,22.70
2019-02-27T08:28:19.826Z,23.20
2019-02-27T08:30:47.446Z,23.20
2019-02-27T08:33:15.450Z,23.10
2019-02-27T08:35:43.010Z,23.50
2019-02-27T08:38:10.873Z,23.30
2019-02-27T08:40:38.638Z,23.40
2019-02-27T08:43:06.752Z,23.50
2019-02-27T08:45:34.386Z,23.70
2019-02-27T08:48:01.903Z,24.00
2019-02-27T08:50:31.640Z,24.60
2019-02-27T08:52:59.645Z,24.70
2019-02-27T08:55:27.888Z,24.50
2019-02-27T08:57:57.018Z,24.30
2019-02-27T09:00:24.732Z,24.30
2019-02-27T09:02:52.423Z,24.60
2019-02-27T09:05:20.975Z,24.80
2019-02-27T09:07:49.956Z,24.70
2019-02-27T09:10:18.005Z,25.00
2019-02-27T09:12:48.801Z,25.50
2019-02-27T09:15:15.563Z,25.50
2019-02-27T09:17:43.378Z,25.00
2019-02-27T09:20:12.658Z,25.30
2019-02-27T09:22:40.199Z,25.60
2019-02-27T09:25:08.082Z,25.80
2019-02-27T09:27:36.026Z,26.00
2019-02-27T09:30:05.155Z,26.50
2019-02-27T09:32:32.930Z,26.30
2019-02-27T09:35:01.085Z,25.60
2019-02-27T09:37:28.638Z,25.40
2019-02-27T09:39:56.182Z,25.40
2019-02-27T09:42:24.810Z,25.80
2019-02-27T09:44:52.614Z,26.40
2019-02-27T09:47:20.098Z,26.00
2019-02-27T09:49:48.274Z,25.60
2019-02-27T09:52:15.800Z,25.80
2019-02-27T09:54:46.769Z,25.80
2019-02-27T09:57:13.646Z,26.60
2019-02-27T09:59:41.592Z,26.80
2019-02-27T10:02:12.416Z,27.40
2019-02-27T10:04:40.535Z,27.70
2019-02-27T10:07:08.657Z,28.30
2019-02-27T10:09:36.505Z,28.20
2019-02-27T10:12:04.706Z,27.80
2019-02-27T10:14:32.203Z,28.30
2019-02-27T10:16:59.783Z,28.30
2019-02-27T10:19:27.777Z,28.20
2019-02-27T10:21:55.951Z,28.30
2019-02-27T10:24:23.818Z,27.90
2019-02-27T10:26:53.603Z,27.90
2019-02-27T10:29:20.660Z,27.80
2019-02-27T10:31:48.843Z,27.40
2019-02-27T10:34:17.631Z,27.00
2019-02-27T10:36:48.560Z,26.20
2019-02-27T10:39:16.418Z,26.40
2019-02-27T10:41:44.927Z,27.00
2019-02-27T10:44:13.175Z,27.70
2019-02-27T10:46:41.206Z,28.60
2019-02-27T10:49:08.996Z,28.70
2019-02-27T10:51:36.842Z,28.80
2019-02-27T10:54:05.532Z,29.20
2019-02-27T10:56:33.746Z,29.50
2019-02-27T10:59:01.826Z,30.10
2019-02-27T11:01:29.642Z,30.00
2019-02-27T11:03:57.082Z,29.70
2019-02-27T11:06:33.543Z,29.70
2019-02-27T11:08:54.368Z,29.20
2019-02-27T11:11:21.974Z,28.50
2019-02-27T11:13:51.740Z,27.80
2019-02-27T11:16:21.360Z,27.50
2019-02-27T11:18:49.443Z,27.80
2019-02-27T11:21:16.951Z,27.70
2019-02-27T11:23:44.511Z,28.20
2019-02-27T11:26:12.128Z,28.80
2019-02-27T11:28:39.761Z,28.40
2019-02-27T11:31:08.457Z,28.50
2019-02-27T11:33:37.280Z,28.60
2019-02-27T11:36:05.673Z,28.80
2019-02-27T11:38:34.195Z,29.40
2019-02-27T11:41:01.758Z,29.50
2019-02-27T11:43:29.619Z,29.30
2019-02-27T11:45:58.142Z,29.00
2019-02-27T11:48:26.742Z,29.50
2019-02-27T11:50:54.569Z,29.70
2019-02-27T11:53:22.363Z,29.70
2019-02-27T11:55:50.523Z,29.20
2019-02-27T11:58:18.385Z,29.10
2019-02-27T12:00:46.153Z,28.90
2019-02-27T12:03:14.031Z,29.20
2019-02-27T12:05:41.930Z,29.80
2019-02-27T12:08:11.374Z,29.70
2019-02-27T12:10:39.043Z,30.00
2019-02-27T12:13:06.622Z,30.40
2019-02-27T12:15:34.106Z,30.70
2019-02-27T12:18:02.114Z,31.10
2019-02-27T12:20:29.718Z,31.10
2019-02-27T12:22:57.683Z,30.90
2019-02-27T12:25:29.048Z,30.80
2019-02-27T12:27:55.954Z,30.70
2019-02-27T12:30:24.246Z,30.40
2019-02-27T12:32:55.715Z,30.60
2019-02-27T12:35:25.987Z,29.90
2019-02-27T12:37:53.787Z,30.30
2019-02-27T12:40:24.940Z,30.50
2019-02-27T12:42:51.240Z,30.30
2019-02-27T12:45:20.649Z,29.60
2019-02-27T12:47:49.443Z,29.50
2019-02-27T12:50:18.718Z,29.60
2019-02-27T12:52:48.141Z,29.90
2019-02-27T12:55:16.488Z,28.60
2019-02-27T12:57:44.084Z,28.40
2019-02-27T13:00:14.691Z,28.70
2019-02-27T13:02:42.535Z,29.00
2019-02-27T13:05:11.309Z,29.00
2019-02-27T13:07:39.455Z,29.10
2019-02-27T13:10:09.323Z,28.90
2019-02-27T13:12:37.323Z,29.00
2019-02-27T13:15:07.358Z,29.20
2019-02-27T13:17:35.709Z,29.20
2019-02-27T13:20:04.320Z,29.30
2019-02-27T13:22:32.255Z,29.40
2019-02-27T13:25:00.365Z,29.60
2019-02-27T13:27:27.997Z,28.90
2019-02-27T13:30:08.463Z,29.10
2019-02-27T13:32:27.327Z,28.90
2019-02-27T13:34:55.022Z,28.40
2019-02-27T13:37:22.610Z,28.00
2019-02-27T13:39:50.403Z,28.20
2019-02-27T13:42:19.309Z,28.40
2019-02-27T13:44:47.136Z,28.70
2019-02-27T13:47:14.614Z,28.40
2019-02-27T13:49:42.364Z,27.90
2019-02-27T13:52:12.751Z,27.60
2019-02-27T13:54:39.862Z,27.50
2019-02-27T13:57:07.626Z,26.90
2019-02-27T13:59:35.882Z,26.10
2019-02-27T14:02:04.812Z,26.00
2019-02-27T14:04:32.445Z,25.90
2019-02-27T14:07:00.265Z,25.80
2019-02-27T14:09:28.075Z,25.70
2019-02-27T14:11:58.396Z,25.40
2019-02-27T14:14:25.647Z,25.10
2019-02-27T14:16:54.338Z,24.60
2019-02-27T14:19:23.889Z,24.20
2019-02-27T14:21:51.886Z,23.80
2019-02-27T14:24:20.607Z,23.70
2019-02-27T14:26:48.842Z,23.50
2019-02-27T14:29:16.686Z,23.20
2019-02-27T14:31:44.448Z,22.80
2019-02-27T14:34:11.995Z,22.50
2019-02-27T14:36:42.396Z,22.30
2019-02-27T14:39:11.090Z,21.90
2019-02-27T14:41:39.215Z,21.80
2019-02-27T14:44:06.798Z,21.40
2019-02-27T14:46:34.701Z,21.50
2019-02-27T14:49:02.832Z,21.10
2019-02-27T14:51:30.346Z,21.00
2019-02-27T14:53:57.912Z,20.90
2019-02-27T14:56:25.779Z,20.90
2019-02-27T14:58:56.589Z,20.50
2019-02-27T15:01:22.689Z,20.30
2019-02-27T15:03:51.111Z,20.50
2019-02-27T15:06:19.383Z,20.50
2019-02-27T15:08:57.436Z,20.00
2019-02-27T15:11:17.518Z,19.70
2019-02-27T15:13:45.053Z,19.90
2019-02-27T15:16:15.356Z,19.90
2019-02-27T15:18:42.504Z,19.90
2019-02-27T15:21:13.019Z,20.00
2019-02-27T15:23:40.314Z,19.80
2019-02-27T15:26:08.602Z,19.70
2019-02-27T15:28:48.354Z,19.50
2019-02-27T15:31:18.172Z,19.70
2019-02-27T15:33:47.502Z,19.40
2019-02-27T15:36:15.411Z,19.60
2019-02-27T15:38:43.511Z,19.50
2019-02-27T15:41:12.395Z,19.20
2019-02-27T15:43:39.977Z,19.40
2019-02-27T15:46:07.603Z,19.30
2019-02-27T15:48:38.069Z,19.00
2019-02-27T15:51:04.888Z,19.40
2019-02-27T15:53:32.359Z,19.30
2019-02-27T15:56:00.106Z,18.80
2019-02-27T15:58:28.054Z,19.00
2019-02-27T16:00:56.652Z,19.00
2019-02-27T16:03:25.389Z,19.00
2019-02-27T16:05:55.729Z,18.70
2019-02-27T16:08:23.986Z,18.80
2019-02-27T16:10:55.112Z,18.70
2019-02-27T16:13:22.429Z,18.60
2019-02-27T16:15:50.623Z,18.70
2019-02-27T16:18:18.791Z,18.60
2019-02-27T16:20:46.981Z,18.30
2019-02-27T16:23:16.706Z,18.50
2019-02-27T16:25:52.889Z,18.30
2019-02-27T16:28:17.966Z,18.30
2019-02-27T16:30:45.834Z,18.10
2019-02-27T16:33:14.019Z,17.90
2019-02-27T16:35:42.973Z,17.80
2019-02-27T16:38:13.048Z,17.60
2019-02-27T16:40:40.675Z,17.90
2019-02-27T16:43:10.325Z,17.50
2019-02-27T16:45:37.733Z,17.50
2019-02-27T16:48:05.793Z,17.40
2019-02-27T16:50:33.721Z,17.40
2019-02-27T16:53:01.848Z,17.50
2019-02-27T16:55:29.863Z,17.10
2019-02-27T16:57:57.938Z,17.00
2019-02-27T17:00:26.790Z,16.80
2019-02-27T17:02:54.317Z,16.90
2019-02-27T17:05:23.607Z,16.80
2019-02-27T17:07:51.766Z,16.60
2019-02-27T17:10:21.873Z,16.40
2019-02-27T17:12:49.520Z,16.40
2019-02-27T17:15:17.175Z,16.50
2019-02-27T17:17:45.046Z,16.20
2019-02-27T17:20:14.177Z,16.30
2019-02-27T17:22:41.663Z,16.00
2019-02-27T17:25:10.088Z,15.90
2019-02-27T17:27:37.722Z,15.90
2019-02-27T17:30:11.562Z,15.90
2019-02-27T17:32:39.410Z,15.60
2019-02-27T17:35:07.310Z,15.60
2019-02-27T17:37:37.382Z,15.30
2019-02-27T17:43:00.087Z,15.30
2019-02-27T17:45:30.424Z,15.10
2019-02-27T17:48:01.687Z,14.80
2019-02-27T17:50:33.783Z,15.10
2019-02-27T17:53:01.835Z,14.90
2019-02-27T17:55:29.625Z,15.00
2019-02-27T17:57:58.600Z,14.90
2019-02-27T18:00:35.646Z,14.80
2019-02-27T18:03:05.009Z,14.50
2019-02-27T18:05:35.934Z,14.50
2019-02-27T18:08:07.204Z,14.60
2019-02-27T18:10:37.576Z,14.40
2019-02-27T18:13:05.187Z,14.40
2019-02-27T18:15:33.108Z,14.40
2019-02-27T18:18:00.694Z,14.00
2019-02-27T18:20:28.980Z,14.10
2019-02-27T18:23:10.131Z,14.00
2019-02-27T18:25:41.169Z,13.80
2019-02-27T18:28:07.172Z,14.10
2019-02-27T18:30:35.078Z,13.60
2019-02-27T18:33:06.006Z,13.70
2019-02-27T18:35:35.876Z,13.80
2019-02-27T18:38:03.789Z,13.20
2019-02-27T18:40:31.979Z,13.40
2019-02-27T18:42:59.875Z,13.40
2019-02-27T18:45:29.778Z,13.20
2019-02-27T18:47:58.659Z,13.20
2019-02-27T18:50:26.896Z,13.00
2019-02-27T18:52:54.891Z,12.90
2019-02-27T18:55:22.487Z,12.90
2019-02-27T18:57:50.074Z,12.70
2019-02-27T19:00:20.609Z,13.10
2019-02-27T19:02:51.939Z,13.00
2019-02-27T19:05:18.600Z,13.00
2019-02-27T19:07:46.671Z,12.80
2019-02-27T19:10:15.092Z,12.70
2019-02-27T19:12:43.286Z,12.90
2019-02-27T19:15:12.625Z,13.00
2019-02-27T19:17:40.667Z,12.80
2019-02-27T19:20:09.641Z,12.90
2019-02-27T19:22:37.558Z,12.70
2019-02-27T19:25:05.547Z,12.70
2019-02-27T19:27:37.557Z,12.50
2019-02-27T19:30:07.330Z,12.50
2019-02-27T19:32:35.129Z,12.40
2019-02-27T19:35:03.144Z,12.30
2019-02-27T19:37:31.172Z,12.10
2019-02-27T19:39:59.311Z,12.30
2019-02-27T19:42:26.795Z,12.10
2019-02-27T19:44:54.958Z,12.10
2019-02-27T19:47:24.823Z,12.10
2019-02-27T19:49:52.428Z,12.10
2019-02-27T19:52:20.110Z,12.00
2019-02-27T19:54:51.512Z,11.90
2019-02-27T19:57:17.367Z,11.90
2019-02-27T20:03:20.042Z,11.50
2019-02-27T20:05:50.424Z,11.60
2019-02-27T20:08:17.082Z,11.40
2019-02-27T20:10:44.877Z,11.30
2019-02-27T20:13:13.081Z,11.10
2019-02-27T20:15:42.820Z,11.20
2019-02-27T20:18:10.849Z,11.20
2019-02-27T20:20:40.940Z,11.20
2019-02-27T20:23:08.212Z,11.40
2019-02-27T20:25:36.167Z,11.00
2019-02-27T20:28:04.600Z,11.10
2019-02-27T20:30:32.195Z,10.80
2019-02-27T20:33:02.601Z,10.60
2019-02-27T20:35:30.025Z,10.60
2019-02-27T20:37:58.346Z,10.70
2019-02-27T20:40:27.663Z,10.40
2019-02-27T20:42:55.630Z,10.30
2019-02-27T20:45:23.231Z,10.30
2019-02-27T20:47:50.960Z,10.40
2019-02-27T20:50:39.083Z,10.50
2019-02-27T20:53:07.413Z,10.40
2019-02-27T20:55:35.049Z,10.20
2019-02-27T20:58:02.791Z,10.40
2019-02-27T21:00:36.065Z,10.10
2019-02-27T21:03:02.467Z,10.30
2019-02-27T21:05:30.021Z,9.50
2019-02-27T21:08:02.086Z,10.30
2019-02-27T21:10:27.487Z,10.10
2019-02-27T21:12:55.359Z,9.80
2019-02-27T21:15:24.787Z,9.80
2019-02-27T21:17:52.335Z,9.90
2019-02-27T21:20:20.119Z,9.70
2019-02-27T21:22:48.004Z,9.70
2019-02-27T21:25:15.871Z,9.60
2019-02-27T21:27:43.766Z,9.50
2019-02-27T21:30:17.743Z,9.70
2019-02-27T21:32:43.130Z,9.50
2019-02-27T21:35:11.131Z,9.40
2019-02-27T21:37:44.588Z,9.50
2019-02-27T21:40:09.051Z,9.20
2019-02-27T21:42:36.879Z,9.10
2019-02-27T21:45:05.478Z,9.20
2019-02-27T21:47:34.614Z,9.00
2019-02-27T21:50:03.633Z,9.10
2019-02-27T21:52:32.839Z,9.10
2019-02-27T21:55:01.159Z,9.10
2019-02-27T21:57:29.092Z,9.10
2019-02-27T21:59:57.050Z,8.90
2019-02-27T22:02:27.241Z,8.90
2019-02-27T22:04:54.787Z,9.10
2019-02-27T22:07:22.271Z,9.00
2019-02-27T22:09:50.723Z,8.80
2019-02-27T22:12:18.942Z,9.00
2019-02-27T22:14:48.542Z,9.20
2019-02-27T22:17:16.262Z,9.00
2019-02-27T22:19:44.513Z,9.00
2019-02-27T22:22:12.215Z,8.70
2019-02-27T22:24:40.001Z,8.80
2019-02-27T22:27:09.167Z,9.00
2019-02-27T22:29:37.897Z,9.00
2019-02-27T22:32:05.509Z,9.20
2019-02-27T22:34:33.430Z,8.80
2019-02-27T22:37:01.586Z,8.80
2019-02-27T22:39:31.618Z,9.00
2019-02-27T22:41:58.586Z,8.90
2019-02-27T22:44:29.247Z,8.80
2019-02-27T22:46:56.519Z,9.10
2019-02-27T22:49:24.680Z,8.90
2019-02-27T22:51:52.577Z,9.10
2019-02-27T22:54:21.905Z,8.90
2019-02-27T22:56:51.575Z,8.90
2019-02-27T22:59:19.417Z,8.70
2019-02-27T23:01:52.505Z,8.70
2019-02-27T23:04:20.530Z,8.80
2019-02-27T23:06:48.398Z,8.80
2019-02-27T23:09:16.718Z,9.00
2019-02-27T23:11:45.174Z,8.80
2019-02-27T23:14:12.969Z,9.00
2019-02-27T23:16:40.873Z,8.90
2019-02-27T23:19:12.165Z,8.90
2019-02-27T23:21:38.107Z,8.90
2019-02-27T23:24:07.176Z,8.80
2019-02-27T23:26:36.086Z,8.90
2019-02-27T23:29:05.554Z,8.60
2019-02-27T23:31:33.557Z,8.70
2019-02-27T23:34:01.136Z,9.00
2019-02-27T23:36:28.945Z,8.90
2019-02-27T23:38:56.611Z,9.00
2019-02-27T23:41:24.429Z,9.30
2019-02-27T23:43:52.549Z,9.40
2019-02-27T23:46:20.385Z,9.20
2019-02-27T23:48:48.526Z,9.30
2019-02-27T23:51:17.015Z,9.50
2019-02-27T23:53:44.868Z,9.30
2019-02-27T23:56:19.331Z,9.70
2019-02-27T23:58:42.854Z,9.60
